Detall de PIREP

Printer-friendly versionPDF version

[2014/02/07 10:57:00]
Flight IATA:CT3201
Pilot Number:042
Company ICAO:CAT
Aircraft Type:B738/F
PAX:146
Departing Airport: EHAM
Destination Airport: LEPA
Alternate Airport:LEBL
Online: VATSIM
Route:LEKKO UN872 KOVIN UM728 RESMI UN857 DIRMO UN855 PPG UP84 LORES
Flight Level:F350
No Slew and time accel
No pause
Crash detect
Detect pilot in Cockpit between each 30 and 45 minutes
10:57 Zero fuel Weight: 121805 Lbs, Fuel Weight: 45469 Lbs
10:57 VATSIM:EHAM 071025Z 22014KT 9999 -RA FEW006 SCT008 BKN012 10/09 Q0981 BECMG FM1200 28022G32KT TEMPO 6000
10:57 VATSIM:LEPA 071030Z 26014KT 230V290 9999 FEW025 16/08 Q1014 NOSIG
10:57 VOICE CATALONIAN
11:07 Parking Brakes off
11:40 Take-off
11:40 Take off Weight: 165746 Lbs
11:40 Wind: 229º @ 016 Knots Heading: 184º
11:40 POS N52º 18´ 06´´ E004º 46´ 43´´
11:40 Flaps:2 at 178 Knots
11:40 Gear Up: 180 Knots
11:41 Flaps:1 at 213 Knots
11:41 Flaps:0 at 191 Knots
11:55 Wind:242º@028 Knots Heading: 200º Ground Speed: 443 Knots Altitude 21407 ft
12:10 Wind:252º@021 Knots Heading: 215º Ground Speed: 421 Knots Altitude 28346 ft
12:25 Wind:252º@018 Knots Heading: 179º Ground Speed: 460 Knots Altitude 31624 ft
12:40 Wind:277º@011 Knots Heading: 180º Ground Speed: 478 Knots Altitude 33569 ft
12:49 TOC
12:49 Fuel Weight: 34964 Lb
12:53 TOD
12:53 Fuel Weight: 34631 Lb
12:55 Wind:287º@015 Knots Heading: 181º Ground Speed: 495 Knots Altitude 33533 ft
13:10 Wind:130º@006 Knots Heading: 183º Ground Speed: 490 Knots Altitude 32933 ft
13:25 Wind:307º@011 Knots Heading: 152º Ground Speed: 308 Knots Altitude 9353 ft
13:29 Flaps:1 at 214 Knots
13:30 Flaps:2 at 193 Knots
13:31 Flaps:3 at 184 Knots
13:31 Gear Down: 183 Knots
13:32 Flaps:4 at 184 Knots
13:32 Flaps:5 at 175 Knots
13:32 Flaps:6 at 168 Knots
13:32 Flaps:7 at 162 Knots
13:35 TouchDown:Rate -62 ft/min Speed: 142 Knots
13:35 VATSIM:LEPA 071300Z 32012KT 9999 FEW022 FEW025TCU SCT045 16/06 Q1015 NOSIG
13:35 Land
13:35 Wind:318º@011 Knots
13:35 Heading: 237º
13:35 Flight Duration: 01:55
13:35 Landing Weight: 153756 Lbs
13:35 POS N39º 32´ 54´´ E002º 44´ 49´´
13:37 Parking brakes on
13:37 Block to Block Duration: 02:30
13:37 Final Fuel: 31761 Lbls
13:37 Spent Fuel: 13708 Lbls
13:37 Flight Length: 808 NM
13:37 TOD Land Length: 275 NM

Exportar CSV

Powered by Drupal - Modified by Danger4k